Time;durP1;ratioP1;P1;durP2;ratioP2;P2;SDS_P1;SDS_P2;PMS_P1;PMS_P2;Temp;Humidity;BMP_temperature;BMP_pressure;BME280_temperature;BME280_humidity;BME280_pressure;Samples;Min_cycle;Max_cycle;Signal;HPM_P1;HPM_P2
2022/05/25 00:01:24;;;;;;;;;;;;;;;;;;5025234;28;20629;-64
2022/05/25 00:03:50;;;;;;;;;;;;;;;;;;5006767;28;21031;-64
2022/05/25 00:06:16;;;;;;;;;;;;;;;;;;5023535;28;19928;-64
2022/05/25 00:08:42;;;;;;;;;;;;;;;;;;5022575;28;19928;-65
2022/05/25 00:11:07;;;;;;;;;;;;;;;;;;5025802;28;20063;-64
2022/05/25 00:13:32;;;;;;;;;;;;;;;;;;5033312;28;19920;-65
2022/05/25 00:15:58;;;;;;;;;;;;;;;;;;5025978;28;19924;-65
2022/05/25 00:18:24;;;;;;;;;;;;;;;;;;5025033;28;19928;-64
2022/05/25 00:20:49;;;;;;;;;;;;;;;;;;5024492;28;19917;-64
2022/05/25 00:23:14;;;;;;;;;;;;;;;;;;5024919;28;19954;-64
2022/05/25 00:25:42;;;;;;;;;;;;;;;;;;5025110;28;20950;-65
2022/05/25 00:28:08;;;;;;;;;;;;;;;;;;5024586;28;19916;-65
2022/05/25 00:30:33;;;;;;;;;;;;;;;;;;5009842;28;20657;-64
2022/05/25 00:32:58;;;;;;;;;;;;;;;;;;5024333;28;19921;-65
2022/05/25 00:35:26;;;;;;;;;;;;;;;;;;5023819;28;19975;-65
2022/05/25 00:37:51;;;;;;;;;;;;;;;;;;5023037;28;21062;-64
2022/05/25 00:40:17;;;;;;;;;;;;;;;;;;5002369;28;19942;-64
2022/05/25 00:42:42;;;;;;;;;;;;;;;;;;5032504;28;19943;-65
2022/05/25 00:45:07;;;;;;;;;;;;;;;;;;5026637;28;19920;-63
2022/05/25 00:47:35;;;;;;;;;;;;;;;;;;5027407;28;19923;-66
2022/05/25 00:50:03;;;;;;;;;;;;;;;;;;5027121;28;19917;-65
2022/05/25 00:52:28;;;;;;;;;;;;;;;;;;5014700;28;21933;-65
2022/05/25 00:54:53;;;;;;;;;;;;;;;;;;5027110;28;19921;-65
2022/05/25 00:57:19;;;;;;;;;;;;;;;;;;5027623;28;20057;-66
2022/05/25 00:59:44;;;;;;;;;;;;;;;;;;5028077;28;20296;-66
2022/05/25 01:02:09;;;;;;;;;;;;;;;;;;5028773;28;20606;-66
2022/05/25 01:04:35;;;;;;;;;;;;;;;;;;5026825;28;19927;-65
2022/05/25 01:07:00;;;;;;;;;;;;;;;;;;5027838;28;19924;-65
2022/05/25 01:09:28;;;;;;;;;;;;;;;;;;5010773;28;19967;-65
2022/05/25 01:11:53;;;;;;;;;;;;;;;;;;5027463;28;19917;-65
2022/05/25 01:14:19;;;;;;;;;;;;;;;;;;5028543;28;19921;-65
2022/05/25 01:16:44;;;;;;;;;;;;;;;;;;5030612;28;20769;-65
2022/05/25 01:19:09;;;;;;;;;;;;;;;;;;5028019;28;19920;-66
2022/05/25 01:21:34;;;;;;;;;;;;;;;;;;5029459;28;19921;-65
2022/05/25 01:24:00;;;;;;;;;;;;;;;;;;5031058;28;19917;-65
2022/05/25 01:26:25;;;;;;;;;;;;;;;;;;5026243;28;19928;-66
2022/05/25 01:28:50;;;;;;;;;;;;;;;;;;5026215;28;19924;-65
2022/05/25 01:31:16;;;;;;;;;;;;;;;;;;5032078;28;19917;-66
2022/05/25 01:33:41;;;;;;;;;;;;;;;;;;5026971;28;19921;-66
2022/05/25 01:36:06;;;;;;;;;;;;;;;;;;5027405;28;19982;-66
2022/05/25 01:38:32;;;;;;;;;;;;;;;;;;5014856;28;19924;-66
2022/05/25 01:40:57;;;;;;;;;;;;;;;;;;5027930;28;19916;-66
2022/05/25 01:43:22;;;;;;;;;;;;;;;;;;5028618;28;19928;-66
2022/05/25 01:45:48;;;;;;;;;;;;;;;;;;5030084;28;19921;-66
2022/05/25 01:48:13;;;;;;;;;;;;;;;;;;5028280;28;19927;-66
2022/05/25 01:50:38;;;;;;;;;;;;;;;;;;5034203;28;19991;-66
2022/05/25 01:53:04;;;;;;;;;;;;;;;;;;5034711;28;19921;-66
2022/05/25 01:55:30;;;;;;;;;;;;;;;;;;5026088;28;20002;-66
2022/05/25 01:57:55;;;;;;;;;;;;;;;;;;5024207;28;19968;-65
2022/05/25 02:00:20;;;;;;;;;;;;;;;;;;5024503;28;20012;-66
2022/05/25 02:05:30;;;;;;;;;;;;;;;;;;5033132;28;19921;-65
2022/05/25 02:07:55;;;;;;;;;;;;;;;;;;5028237;28;19921;-65
2022/05/25 02:10:21;;;;;;;;;;;;;;;;;;5007615;28;20936;-65
2022/05/25 02:12:46;;;;;;;;;;;;;;;;;;5030119;28;20380;-65
2022/05/25 02:15:11;;;;;;;;;;;;;;;;;;5028173;28;20479;-64
2022/05/25 02:17:36;;;;;;;;;;;;;;;;;;5027009;28;20388;-66
2022/05/25 02:20:05;;;;;;;;;;;;;;;;;;5024306;28;19950;-65
2022/05/25 02:22:30;;;;;;;;;;;;;;;;;;5009950;28;20055;-66
2022/05/25 02:24:56;;;;;;;;;;;;;;;;;;5026995;28;20242;-65
2022/05/25 02:27:21;;;;;;;;;;;;;;;;;;5026541;28;20055;-66
2022/05/25 02:29:46;;;;;;;;;;;;;;;;;;5022748;28;19917;-66
2022/05/25 02:32:12;;;;;;;;;;;;;;;;;;5028666;28;19966;-66
2022/05/25 02:34:37;;;;;;;;;;;;;;;;;;5024639;28;19921;-65
2022/05/25 02:37:05;;;;;;;;;;;;;;;;;;5026930;28;19962;-65
2022/05/25 02:39:30;;;;;;;;;;;;;;;;;;5009049;28;19924;-66
2022/05/25 02:41:56;;;;;;;;;;;;;;;;;;5033278;28;19920;-66
2022/05/25 02:44:21;;;;;;;;;;;;;;;;;;5028070;28;20006;-64
2022/05/25 02:46:47;;;;;;;;;;;;;;;;;;5026931;28;19920;-65
2022/05/25 02:49:12;;;;;;;;;;;;;;;;;;5012258;28;19952;-66
2022/05/25 02:51:38;;;;;;;;;;;;;;;;;;5024995;28;19920;-65
2022/05/25 02:54:03;;;;;;;;;;;;;;;;;;5024473;28;19955;-65
2022/05/25 02:56:29;;;;;;;;;;;;;;;;;;5024764;28;19928;-66
2022/05/25 02:58:54;;;;;;;;;;;;;;;;;;5016919;28;19996;-65
2022/05/25 03:01:19;;;;;;;;;;;;;;;;;;5009926;28;20892;-65
2022/05/25 03:03:45;;;;;;;;;;;;;;;;;;5026676;28;20380;-65
2022/05/25 03:06:10;;;;;;;;;;;;;;;;;;5025096;28;20121;-66
2022/05/25 03:08:35;;;;;;;;;;;;;;;;;;5027392;28;19917;-65
2022/05/25 03:11:01;;;;;;;;;;;;;;;;;;5023590;28;19959;-66
2022/05/25 03:13:26;;;;;;;;;;;;;;;;;;5026092;28;19920;-65
2022/05/25 03:15:51;;;;;;;;;;;;;;;;;;5010536;28;20384;-65
2022/05/25 03:18:17;;;;;;;;;;;;;;;;;;5026488;28;20008;-66
2022/05/25 03:20:44;;;;;;;;;;;;;;;;;;5026835;28;20551;-66
2022/05/25 03:23:09;;;;;;;;;;;;;;;;;;5025366;28;20413;-65
2022/05/25 03:25:40;;;;;;;;;;;;;;;;;;5024621;28;19916;-65
2022/05/25 03:28:05;;;;;;;;;;;;;;;;;;5025284;28;21952;-65
2022/05/25 03:30:31;;;;;;;;;;;;;;;;;;5026458;28;19917;-65
2022/05/25 03:32:56;;;;;;;;;;;;;;;;;;5024611;28;20006;-65
2022/05/25 03:35:22;;;;;;;;;;;;;;;;;;5022855;28;19917;-65
2022/05/25 03:37:48;;;;;;;;;;;;;;;;;;5003931;28;19936;-65
2022/05/25 03:40:16;;;;;;;;;;;;;;;;;;5023831;28;19917;-65
2022/05/25 03:42:41;;;;;;;;;;;;;;;;;;5028276;28;19969;-65
2022/05/25 03:45:08;;;;;;;;;;;;;;;;;;5025333;28;20866;-65
2022/05/25 03:47:34;;;;;;;;;;;;;;;;;;5024976;28;19931;-66
2022/05/25 03:49:59;;;;;;;;;;;;;;;;;;5026559;28;19986;-65
2022/05/25 03:52:24;;;;;;;;;;;;;;;;;;5010798;28;19928;-65
2022/05/25 03:54:50;;;;;;;;;;;;;;;;;;5015497;28;19927;-66
2022/05/25 03:57:15;;;;;;;;;;;;;;;;;;5021916;28;19951;-65
2022/05/25 03:59:41;;;;;;;;;;;;;;;;;;5026978;28;19928;-66
2022/05/25 04:02:06;;;;;;;;;;;;;;;;;;5024334;28;19925;-65
2022/05/25 04:04:31;;;;;;;;;;;;;;;;;;5025149;28;19966;-65
2022/05/25 04:06:56;;;;;;;;;;;;;;;;;;5024365;28;19928;-65
2022/05/25 04:09:21;;;;;;;;;;;;;;;;;;5022595;28;19920;-65
2022/05/25 04:11:49;;;;;;;;;;;;;;;;;;5023294;28;21280;-65
2022/05/25 04:14:15;;;;;;;;;;;;;;;;;;5026491;28;19916;-66
2022/05/25 04:16:40;;;;;;;;;;;;;;;;;;5024442;28;19921;-65
2022/05/25 04:19:06;;;;;;;;;;;;;;;;;;5023058;28;19917;-65
2022/05/25 04:21:31;;;;;;;;;;;;;;;;;;5026017;28;19920;-64
2022/05/25 04:23:57;;;;;;;;;;;;;;;;;;5026334;28;19963;-66
2022/05/25 04:26:22;;;;;;;;;;;;;;;;;;5023905;28;19920;-64
2022/05/25 04:28:47;;;;;;;;;;;;;;;;;;5025891;28;20833;-65
2022/05/25 04:31:12;;;;;;;;;;;;;;;;;;5020247;28;20043;-66
2022/05/25 04:33:40;;;;;;;;;;;;;;;;;;5028837;28;19934;-66
2022/05/25 04:36:05;;;;;;;;;;;;;;;;;;5030820;28;19955;-67
2022/05/25 04:38:30;;;;;;;;;;;;;;;;;;5029046;28;20007;-65
2022/05/25 04:40:56;;;;;;;;;;;;;;;;;;5027543;28;20277;-65
2022/05/25 04:43:21;;;;;;;;;;;;;;;;;;5006701;28;19917;-64
2022/05/25 04:45:46;;;;;;;;;;;;;;;;;;5026657;28;19967;-64
2022/05/25 04:48:15;;;;;;;;;;;;;;;;;;5029092;28;19920;-65
2022/05/25 04:50:40;;;;;;;;;;;;;;;;;;5028442;28;20620;-65
2022/05/25 04:53:06;;;;;;;;;;;;;;;;;;5026744;28;19924;-64
2022/05/25 04:58:15;;;;;;;;;;;;;;;;;;5023972;28;19952;-65
2022/05/25 05:00:41;;;;;;;;;;;;;;;;;;5026405;28;21743;-64
2022/05/25 05:03:06;;;;;;;;;;;;;;;;;;5024045;28;19920;-65
2022/05/25 05:05:31;;;;;;;;;;;;;;;;;;5024525;28;19921;-64
2022/05/25 05:07:56;;;;;;;;;;;;;;;;;;5031564;28;19921;-63
2022/05/25 05:10:22;;;;;;;;;;;;;;;;;;5028083;28;19917;-65
2022/05/25 05:12:49;;;;;;;;;;;;;;;;;;5012080;28;20047;-64
2022/05/25 05:15:15;;;;;;;;;;;;;;;;;;5029013;28;21459;-65
2022/05/25 05:17:40;;;;;;;;;;;;;;;;;;5025924;28;19929;-65
2022/05/25 05:20:06;;;;;;;;;;;;;;;;;;5025661;28;20734;-66
2022/05/25 05:22:31;;;;;;;;;;;;;;;;;;5026972;28;19917;-66
2022/05/25 05:24:57;;;;;;;;;;;;;;;;;;5026777;28;19991;-66
2022/05/25 05:27:22;;;;;;;;;;;;;;;;;;5024048;28;19921;-66
2022/05/25 05:29:48;;;;;;;;;;;;;;;;;;5024069;28;19921;-66
2022/05/25 05:32:13;;;;;;;;;;;;;;;;;;5024614;28;19921;-66
2022/05/25 05:34:39;;;;;;;;;;;;;;;;;;5026182;28;19920;-65
2022/05/25 05:37:04;;;;;;;;;;;;;;;;;;5025412;28;20323;-66
2022/05/25 05:39:29;;;;;;;;;;;;;;;;;;5027283;28;20259;-65
2022/05/25 05:41:55;;;;;;;;;;;;;;;;;;5027392;28;21103;-66
2022/05/25 05:44:20;;;;;;;;;;;;;;;;;;5029655;28;19988;-66
2022/05/25 05:46:46;;;;;;;;;;;;;;;;;;5031213;28;19925;-65
2022/05/25 05:49:11;;;;;;;;;;;;;;;;;;5048400;28;19921;-65
2022/05/25 05:51:36;;;;;;;;;;;;;;;;;;5033145;28;19924;-65
2022/05/25 05:54:05;;;;;;;;;;;;;;;;;;5036382;28;19956;-65
2022/05/25 05:56:32;;;;;;;;;;;;;;;;;;5023865;28;19925;-65
2022/05/25 05:58:58;;;;;;;;;;;;;;;;;;5027658;28;19994;-66
2022/05/25 06:01:23;;;;;;;;;;;;;;;;;;5026062;28;21880;-65
2022/05/25 06:03:49;;;;;;;;;;;;;;;;;;5023709;28;20000;-66
2022/05/25 06:06:17;;;;;;;;;;;;;;;;;;5025147;28;19920;-66
2022/05/25 06:08:46;;;;;;;;;;;;;;;;;;5027824;28;19963;-66
2022/05/25 06:11:16;;;;;;;;;;;;;;;;;;5014130;28;19925;-64
2022/05/25 06:13:44;;;;;;;;;;;;;;;;;;5025771;28;19920;-66
2022/05/25 06:21:39;;;;;;;;;;;;;;;;;;5032921;28;19943;-66
2022/05/25 06:24:07;;;;;;;;;;;;;;;;;;5016514;28;20380;-65
2022/05/25 06:26:33;;;;;;;;;;;;;;;;;;5033469;28;20036;-66
2022/05/25 06:29:00;;;;;;;;;;;;;;;;;;5031165;28;20003;-65
2022/05/25 06:31:28;;;;;;;;;;;;;;;;;;5031438;28;19943;-65
2022/05/25 06:33:53;;;;;;;;;;;;;;;;;;5025552;28;19948;-66
2022/05/25 06:36:18;;;;;;;;;;;;;;;;;;5031961;28;20035;-66
2022/05/25 06:38:44;;;;;;;;;;;;;;;;;;5035386;28;19920;-66
2022/05/25 06:41:12;;;;;;;;;;;;;;;;;;5030148;28;19967;-66
2022/05/25 06:43:39;;;;;;;;;;;;;;;;;;5030462;28;19921;-66
2022/05/25 06:46:05;;;;;;;;;;;;;;;;;;5031150;28;19924;-67
2022/05/25 06:48:33;;;;;;;;;;;;;;;;;;5031955;28;19924;-67
2022/05/25 06:50:58;;;;;;;;;;;;;;;;;;5031042;28;19929;-67
2022/05/25 06:53:26;;;;;;;;;;;;;;;;;;5017932;28;20309;-66
2022/05/25 06:55:52;;;;;;;;;;;;;;;;;;5019682;28;19929;-66
2022/05/25 06:58:20;;;;;;;;;;;;;;;;;;5030889;28;20330;-65
2022/05/25 07:00:45;;;;;;;;;;;;;;;;;;5030227;28;20074;-66
2022/05/25 07:03:11;;;;;;;;;;;;;;;;;;5033147;28;20360;-66
2022/05/25 07:05:40;;;;;;;;;;;;;;;;;;5028366;28;19920;-65
2022/05/25 07:08:05;;;;;;;;;;;;;;;;;;5032017;28;19939;-67
2022/05/25 07:10:33;;;;;;;;;;;;;;;;;;5030018;28;19924;-66
2022/05/25 07:12:59;;;;;;;;;;;;;;;;;;5032733;28;19925;-67
2022/05/25 07:15:24;;;;;;;;;;;;;;;;;;5033347;28;19924;-66
2022/05/25 07:17:50;;;;;;;;;;;;;;;;;;5034208;28;19946;-66
2022/05/25 07:20:17;;;;;;;;;;;;;;;;;;5031688;28;20501;-66
2022/05/25 07:22:43;;;;;;;;;;;;;;;;;;5030923;28;20006;-66
2022/05/25 07:25:10;;;;;;;;;;;;;;;;;;5028157;28;20091;-67
2022/05/25 07:27:39;;;;;;;;;;;;;;;;;;5031846;28;20003;-66
2022/05/25 07:30:05;;;;;;;;;;;;;;;;;;5030736;28;19921;-68
2022/05/25 07:32:34;;;;;;;;;;;;;;;;;;5029183;28;19921;-67
2022/05/25 07:35:00;;;;;;;;;;;;;;;;;;5020582;28;19924;-66
2022/05/25 07:37:25;;;;;;;;;;;;;;;;;;5032210;28;19938;-68
2022/05/25 07:39:51;;;;;;;;;;;;;;;;;;5030711;28;19917;-66
2022/05/25 07:42:18;;;;;;;;;;;;;;;;;;5028159;28;19921;-66
2022/05/25 07:44:44;;;;;;;;;;;;;;;;;;5029324;28;20669;-65
2022/05/25 07:47:10;;;;;;;;;;;;;;;;;;5029298;28;19921;-69
2022/05/25 07:49:35;;;;;;;;;;;;;;;;;;5030099;28;19924;-68
2022/05/25 07:52:01;;;;;;;;;;;;;;;;;;5012913;28;19920;-66
2022/05/25 07:54:27;;;;;;;;;;;;;;;;;;5021367;28;19920;-66
2022/05/25 07:56:53;;;;;;;;;;;;;;;;;;5021322;28;20532;-65
2022/05/25 07:59:18;;;;;;;;;;;;;;;;;;5027565;28;19921;-67
2022/05/25 08:07:14;;;;;;;;;;;;;;;;;;5027294;28;19916;-68
2022/05/25 08:09:40;;;;;;;;;;;;;;;;;;5026589;28;19948;-69
2022/05/25 08:12:24;;;;;;;;;;;;;;;;;;5201409;23;19989;-69
2022/05/25 08:15:00;;;;;;;;;;;;;;;;;;4927105;29;19922;-71
2022/05/25 08:17:28;;;;;;;;;;;;;;;;;;4945725;28;19950;-69
2022/05/25 08:19:53;;;;;;;;;;;;;;;;;;4933650;28;20018;-69
2022/05/25 08:22:19;;;;;;;;;;;;;;;;;;4939145;28;20469;-69
2022/05/25 08:24:44;;;;;;;;;;;;;;;;;;4923397;28;19923;-68
2022/05/25 08:27:09;;;;;;;;;;;;;;;;;;4924490;28;19926;-69
2022/05/25 08:29:35;;;;;;;;;;;;;;;;;;4929721;28;20466;-70
2022/05/25 08:32:03;;;;;;;;;;;;;;;;;;4928600;28;19996;-68
2022/05/25 08:40:41;;;;;;;;;;;;;;;;;;4928700;28;19919;-69
2022/05/25 08:43:14;;;;;;;;;;;;;;;;;;4930397;28;20030;-70
2022/05/25 08:45:42;;;;;;;;;;;;;;;;;;4944708;28;20022;-68
2022/05/25 08:48:08;;;;;;;;;;;;;;;;;;4931315;28;19927;-68
2022/05/25 08:53:49;;;;;;;;;;;;;;;;;;4931232;28;19929;-68
2022/05/25 08:56:19;;;;;;;;;;;;;;;;;;4929017;29;19926;-67
2022/05/25 08:58:45;;;;;;;;;;;;;;;;;;4945114;28;19918;-68
2022/05/25 09:01:12;;;;;;;;;;;;;;;;;;4930674;28;19923;-68
2022/05/25 09:03:38;;;;;;;;;;;;;;;;;;4931804;28;19926;-67
2022/05/25 09:06:03;;;;;;;;;;;;;;;;;;4927269;28;19922;-68
2022/05/25 09:08:31;;;;;;;;;;;;;;;;;;4935047;29;20390;-65
2022/05/25 09:10:57;;;;;;;;;;;;;;;;;;4932256;28;19923;-68
2022/05/25 09:13:23;;;;;;;;;;;;;;;;;;4934775;28;19954;-68
2022/05/25 09:18:44;;;;;;;;;;;;;;;;;;4930667;28;19926;-69
2022/05/25 09:21:10;;;;;;;;;;;;;;;;;;4930201;28;19946;-68
2022/05/25 09:23:38;;;;;;;;;;;;;;;;;;4944003;28;20674;-69
2022/05/25 09:26:03;;;;;;;;;;;;;;;;;;4930042;28;19922;-69
2022/05/25 09:28:31;;;;;;;;;;;;;;;;;;4944712;28;19926;-65
2022/05/25 09:30:57;;;;;;;;;;;;;;;;;;4930896;28;19922;-67
2022/05/25 09:33:22;;;;;;;;;;;;;;;;;;4930666;28;20673;-65
2022/05/25 09:35:50;;;;;;;;;;;;;;;;;;4927349;28;19918;-66
2022/05/25 09:38:19;;;;;;;;;;;;;;;;;;4928884;28;19922;-67
2022/05/25 09:40:44;;;;;;;;;;;;;;;;;;4926517;28;19918;-66
2022/05/25 09:43:09;;;;;;;;;;;;;;;;;;4928425;28;19922;-64
2022/05/25 09:45:37;;;;;;;;;;;;;;;;;;4943253;28;19918;-66
2022/05/25 09:51:19;;;;;;;;;;;;;;;;;;4933025;28;19929;-66
2022/05/25 09:53:44;;;;;;;;;;;;;;;;;;4932984;28;19918;-68
2022/05/25 09:56:12;;;;;;;;;;;;;;;;;;4930511;29;20430;-67
2022/05/25 09:58:37;;;;;;;;;;;;;;;;;;4933610;28;19929;-68
2022/05/25 10:01:06;;;;;;;;;;;;;;;;;;4946907;28;19934;-63
2022/05/25 10:03:33;;;;;;;;;;;;;;;;;;4928970;28;20024;-68
2022/05/25 10:05:59;;;;;;;;;;;;;;;;;;4929141;28;22053;-63
2022/05/25 10:11:27;;;;;;;;;;;;;;;;;;4940610;28;20012;-67
2022/05/25 10:13:53;;;;;;;;;;;;;;;;;;4941094;28;19972;-69
2022/05/25 10:16:19;;;;;;;;;;;;;;;;;;4945182;28;19923;-65
2022/05/25 10:18:45;;;;;;;;;;;;;;;;;;4925717;28;19926;-65
2022/05/25 10:21:10;;;;;;;;;;;;;;;;;;4940596;28;19933;-68
2022/05/25 10:23:37;;;;;;;;;;;;;;;;;;4928439;28;20945;-68
2022/05/25 10:26:05;;;;;;;;;;;;;;;;;;4940821;28;19940;-67
2022/05/25 10:28:30;;;;;;;;;;;;;;;;;;4942588;28;19933;-67
2022/05/25 10:39:39;;;;;;;;;;;;;;;;;;4926260;28;19998;-66
2022/05/25 10:42:14;;;;;;;;;;;;;;;;;;4926641;28;19992;-67
2022/05/25 10:44:39;;;;;;;;;;;;;;;;;;4926928;28;20915;-66
2022/05/25 10:47:05;;;;;;;;;;;;;;;;;;4941297;28;19965;-67
2022/05/25 10:49:31;;;;;;;;;;;;;;;;;;4942576;28;19957;-68
2022/05/25 10:51:58;;;;;;;;;;;;;;;;;;4925371;28;19929;-67
2022/05/25 10:57:44;;;;;;;;;;;;;;;;;;4927515;28;19977;-66
2022/05/25 11:00:10;;;;;;;;;;;;;;;;;;4926641;28;19919;-66
2022/05/25 11:02:36;;;;;;;;;;;;;;;;;;4925729;28;19922;-68
2022/05/25 11:05:01;;;;;;;;;;;;;;;;;;4927670;28;20448;-62
2022/05/25 11:10:16;;;;;;;;;;;;;;;;;;4927028;28;19918;-61
2022/05/25 11:12:41;;;;;;;;;;;;;;;;;;4932944;28;20009;-64
2022/05/25 11:15:10;;;;;;;;;;;;;;;;;;4930483;29;20562;-63
2022/05/25 11:17:54;;;;;;;;;;;;;;;;;;4926137;28;19925;-63
2022/05/25 11:20:24;;;;;;;;;;;;;;;;;;4942770;28;21224;-64
2022/05/25 11:22:49;;;;;;;;;;;;;;;;;;4926782;28;19929;-64
2022/05/25 11:31:48;;;;;;;;;;;;;;;;;;4926892;28;19981;-64
2022/05/25 11:34:16;;;;;;;;;;;;;;;;;;4926393;28;19922;-62
2022/05/25 11:36:41;;;;;;;;;;;;;;;;;;4927099;28;20634;-63
2022/05/25 11:39:10;;;;;;;;;;;;;;;;;;4930120;28;20006;-63
2022/05/25 11:44:56;;;;;;;;;;;;;;;;;;4931308;28;20010;-63
2022/05/25 11:47:22;;;;;;;;;;;;;;;;;;4926065;28;19926;-61
2022/05/25 11:49:47;;;;;;;;;;;;;;;;;;4942761;28;20353;-61
2022/05/25 11:52:29;;;;;;;;;;;;;;;;;;4925615;28;19922;-62
2022/05/25 11:54:55;;;;;;;;;;;;;;;;;;4925458;28;19989;-61
2022/05/25 11:57:20;;;;;;;;;;;;;;;;;;4938256;28;20409;-61
2022/05/25 11:59:47;;;;;;;;;;;;;;;;;;4927890;28;20208;-59
2022/05/25 12:02:21;;;;;;;;;;;;;;;;;;4942910;28;19923;-62
2022/05/25 12:04:46;;;;;;;;;;;;;;;;;;4927096;28;19923;-64
2022/05/25 12:07:12;;;;;;;;;;;;;;;;;;4927353;28;19918;-61
2022/05/25 12:09:39;;;;;;;;;;;;;;;;;;4939805;28;19922;-60
2022/05/25 12:12:05;;;;;;;;;;;;;;;;;;4925126;28;19970;-65
2022/05/25 12:14:31;;;;;;;;;;;;;;;;;;4926015;28;20004;-65
2022/05/25 12:16:56;;;;;;;;;;;;;;;;;;4944342;28;19933;-63
2022/05/25 12:19:24;;;;;;;;;;;;;;;;;;4942016;28;19926;-62
2022/05/25 12:25:06;;;;;;;;;;;;;;;;;;4923832;28;20035;-64
2022/05/25 12:27:32;;;;;;;;;;;;;;;;;;4941386;28;20476;-63
2022/05/25 12:30:00;;;;;;;;;;;;;;;;;;4921545;28;19923;-61
2022/05/25 12:32:25;;;;;;;;;;;;;;;;;;4927978;28;19925;-64
2022/05/25 12:34:53;;;;;;;;;;;;;;;;;;4925553;28;19946;-63
2022/05/25 12:37:18;;;;;;;;;;;;;;;;;;4932375;28;19949;-63
2022/05/25 12:39:43;;;;;;;;;;;;;;;;;;4944299;28;19926;-64
2022/05/25 12:42:08;;;;;;;;;;;;;;;;;;4929826;28;19929;-63
2022/05/25 12:50:08;;;;;;;;;;;;;;;;;;4929448;28;19928;-64
2022/05/25 12:52:33;;;;;;;;;;;;;;;;;;4913072;29;19945;-63
2022/05/25 12:57:44;;;;;;;;;;;;;;;;;;4927210;28;20636;-66
2022/05/25 13:00:15;;;;;;;;;;;;;;;;;;4925155;28;19926;-64
2022/05/25 13:02:40;;;;;;;;;;;;;;;;;;4932334;28;19958;-63
2022/05/25 13:08:25;;;;;;;;;;;;;;;;;;4928902;28;19933;-64
2022/05/25 13:10:53;;;;;;;;;;;;;;;;;;4926090;28;20033;-63
2022/05/25 13:13:18;;;;;;;;;;;;;;;;;;4943330;28;19987;-61
2022/05/25 13:15:48;;;;;;;;;;;;;;;;;;4927198;28;19957;-65
2022/05/25 13:21:00;;;;;;;;;;;;;;;;;;4928668;28;19918;-62
2022/05/25 13:23:25;;;;;;;;;;;;;;;;;;4927059;28;19958;-65
2022/05/25 13:25:57;;;;;;;;;;;;;;;;;;4925938;28;19918;-60
2022/05/25 13:28:24;;;;;;;;;;;;;;;;;;4928610;28;19927;-62
2022/05/25 13:30:52;;;;;;;;;;;;;;;;;;4926807;28;19968;-61
2022/05/25 13:33:18;;;;;;;;;;;;;;;;;;4928582;28;19969;-64
2022/05/25 13:35:46;;;;;;;;;;;;;;;;;;4926358;28;19929;-64
2022/05/25 13:38:14;;;;;;;;;;;;;;;;;;4945397;28;19919;-63
2022/05/25 13:40:39;;;;;;;;;;;;;;;;;;4930080;28;19922;-64
2022/05/25 13:46:21;;;;;;;;;;;;;;;;;;4932682;28;19969;-66
2022/05/25 13:48:51;;;;;;;;;;;;;;;;;;4928158;28;20010;-63
2022/05/25 13:51:16;;;;;;;;;;;;;;;;;;4909984;28;19927;-62
2022/05/25 13:53:42;;;;;;;;;;;;;;;;;;4927397;28;20004;-62
2022/05/25 13:56:11;;;;;;;;;;;;;;;;;;4927369;28;20392;-63
2022/05/25 13:58:48;;;;;;;;;;;;;;;;;;4929366;28;19922;-62
2022/05/25 14:01:16;;;;;;;;;;;;;;;;;;4941482;28;20596;-64
2022/05/25 14:03:44;;;;;;;;;;;;;;;;;;4943194;28;19930;-62
2022/05/25 14:06:13;;;;;;;;;;;;;;;;;;4942657;28;20563;-61
2022/05/25 14:11:24;;;;;;;;;;;;;;;;;;4938994;28;19990;-63
2022/05/25 14:13:50;;;;;;;;;;;;;;;;;;4927902;28;20057;-63
2022/05/25 14:16:34;;;;;;;;;;;;;;;;;;4925282;28;19929;-61
2022/05/25 14:19:01;;;;;;;;;;;;;;;;;;4942139;28;20546;-62
2022/05/25 14:21:26;;;;;;;;;;;;;;;;;;4941408;28;19922;-64
2022/05/25 14:23:52;;;;;;;;;;;;;;;;;;4930032;28;19962;-63
2022/05/25 14:26:17;;;;;;;;;;;;;;;;;;4928320;28;19926;-68
2022/05/25 14:28:46;;;;;;;;;;;;;;;;;;4928070;28;19922;-61
2022/05/25 14:31:12;;;;;;;;;;;;;;;;;;4941759;28;19923;-64
2022/05/25 14:33:39;;;;;;;;;;;;;;;;;;4927038;28;19922;-65
2022/05/25 14:36:04;;;;;;;;;;;;;;;;;;4930025;28;19921;-61
2022/05/25 14:38:30;;;;;;;;;;;;;;;;;;4943911;28;21764;-60
2022/05/25 14:40:56;;;;;;;;;;;;;;;;;;4926206;28;19918;-66
2022/05/25 14:43:21;;;;;;;;;;;;;;;;;;4943524;28;19929;-63
2022/05/25 14:45:47;;;;;;;;;;;;;;;;;;4922183;28;19923;-62
2022/05/25 14:48:12;;;;;;;;;;;;;;;;;;4928476;28;19931;-65
2022/05/25 14:50:41;;;;;;;;;;;;;;;;;;4939480;28;20389;-64
2022/05/25 14:53:09;;;;;;;;;;;;;;;;;;4927357;28;19926;-63
2022/05/25 14:55:34;;;;;;;;;;;;;;;;;;4926285;28;19929;-64
2022/05/25 14:58:02;;;;;;;;;;;;;;;;;;4925860;28;19922;-64
2022/05/25 15:03:36;;;;;;;;;;;;;;;;;;4927695;28;19923;-65
2022/05/25 15:06:04;;;;;;;;;;;;;;;;;;4927351;28;19933;-62
2022/05/25 15:08:31;;;;;;;;;;;;;;;;;;4927531;28;19930;-62
2022/05/25 15:10:56;;;;;;;;;;;;;;;;;;4926267;28;19922;-63
2022/05/25 15:13:22;;;;;;;;;;;;;;;;;;4925004;28;20591;-64
2022/05/25 15:18:37;;;;;;;;;;;;;;;;;;4927111;28;20049;-66
2022/05/25 15:21:02;;;;;;;;;;;;;;;;;;4940251;28;19926;-64
2022/05/25 15:23:28;;;;;;;;;;;;;;;;;;4926151;28;19984;-63
2022/05/25 15:25:54;;;;;;;;;;;;;;;;;;4925021;28;20362;-64
2022/05/25 15:28:37;;;;;;;;;;;;;;;;;;4942312;28;19968;-66
2022/05/25 15:31:03;;;;;;;;;;;;;;;;;;4937964;28;20413;-62
2022/05/25 15:33:33;;;;;;;;;;;;;;;;;;4927691;28;20370;-63
2022/05/25 15:35:59;;;;;;;;;;;;;;;;;;4928176;28;19944;-63
2022/05/25 15:38:27;;;;;;;;;;;;;;;;;;4928458;28;19954;-66
2022/05/25 15:40:53;;;;;;;;;;;;;;;;;;4944265;28;19993;-66
2022/05/25 15:43:21;;;;;;;;;;;;;;;;;;4929333;28;19919;-63
2022/05/25 15:45:47;;;;;;;;;;;;;;;;;;4926463;28;20009;-66
2022/05/25 15:48:24;;;;;;;;;;;;;;;;;;4928118;28;19977;-64
2022/05/25 15:50:50;;;;;;;;;;;;;;;;;;4926064;28;19918;-65
2022/05/25 15:53:15;;;;;;;;;;;;;;;;;;4924323;29;21210;-65
2022/05/25 15:58:40;;;;;;;;;;;;;;;;;;4925640;28;20465;-67
2022/05/25 16:01:21;;;;;;;;;;;;;;;;;;4941724;28;20479;-62
2022/05/25 16:03:46;;;;;;;;;;;;;;;;;;4927990;28;19927;-67
2022/05/25 16:06:11;;;;;;;;;;;;;;;;;;4944703;28;19981;-63
2022/05/25 16:11:22;;;;;;;;;;;;;;;;;;4930148;28;20253;-65
2022/05/25 16:13:50;;;;;;;;;;;;;;;;;;4928739;28;19927;-65
2022/05/25 16:16:18;;;;;;;;;;;;;;;;;;4928949;28;19919;-65
2022/05/25 16:18:46;;;;;;;;;;;;;;;;;;4931003;28;20436;-65
2022/05/25 16:21:27;;;;;;;;;;;;;;;;;;4944362;28;19918;-64
2022/05/25 16:23:53;;;;;;;;;;;;;;;;;;4928073;28;19945;-62
2022/05/25 16:26:21;;;;;;;;;;;;;;;;;;4928291;28;20862;-63
2022/05/25 16:28:50;;;;;;;;;;;;;;;;;;4929590;28;19926;-64
2022/05/25 16:31:16;;;;;;;;;;;;;;;;;;4928816;28;19925;-66
2022/05/25 16:37:15;;;;;;;;;;;;;;;;;;4929364;28;19929;-60
2022/05/25 16:39:41;;;;;;;;;;;;;;;;;;4944651;28;21503;-61
2022/05/25 16:42:13;;;;;;;;;;;;;;;;;;4928677;28;19973;-68
2022/05/25 16:44:41;;;;;;;;;;;;;;;;;;4928312;28;20398;-66
2022/05/25 16:47:06;;;;;;;;;;;;;;;;;;4929070;28;19926;-68
2022/05/25 16:49:31;;;;;;;;;;;;;;;;;;4927182;28;19926;-64
2022/05/25 16:51:59;;;;;;;;;;;;;;;;;;4928285;28;19922;-66
2022/05/25 16:57:12;;;;;;;;;;;;;;;;;;4928937;28;20401;-65
2022/05/25 16:59:37;;;;;;;;;;;;;;;;;;4929748;28;19926;-64
2022/05/25 17:02:05;;;;;;;;;;;;;;;;;;4929192;29;19933;-64
2022/05/25 17:04:43;;;;;;;;;;;;;;;;;;4944032;28;19933;-64
2022/05/25 17:07:08;;;;;;;;;;;;;;;;;;4930427;28;19922;-65
2022/05/25 17:09:33;;;;;;;;;;;;;;;;;;4927182;28;19926;-65
2022/05/25 17:11:59;;;;;;;;;;;;;;;;;;4929980;28;19930;-63
2022/05/25 17:14:27;;;;;;;;;;;;;;;;;;4929214;28;19997;-60
2022/05/25 17:16:55;;;;;;;;;;;;;;;;;;4929783;28;19965;-63
2022/05/25 17:22:08;;;;;;;;;;;;;;;;;;4928328;28;19942;-60
2022/05/25 17:24:36;;;;;;;;;;;;;;;;;;4930694;28;19918;-62
2022/05/25 17:27:01;;;;;;;;;;;;;;;;;;4929321;28;19929;-64
2022/05/25 17:29:28;;;;;;;;;;;;;;;;;;4932328;28;21869;-68
2022/05/25 17:31:56;;;;;;;;;;;;;;;;;;4948671;28;19923;-65
2022/05/25 17:34:24;;;;;;;;;;;;;;;;;;4932765;28;19929;-65
2022/05/25 17:42:20;;;;;;;;;;;;;;;;;;4933347;28;19922;-61
2022/05/25 17:44:48;;;;;;;;;;;;;;;;;;4933225;28;19919;-65
2022/05/25 17:47:13;;;;;;;;;;;;;;;;;;4934646;28;19930;-64
2022/05/25 17:49:41;;;;;;;;;;;;;;;;;;4932750;28;19924;-61
2022/05/25 17:55:23;;;;;;;;;;;;;;;;;;4933484;29;19968;-60
2022/05/25 17:57:51;;;;;;;;;;;;;;;;;;4933183;28;20557;-62
2022/05/25 18:00:17;;;;;;;;;;;;;;;;;;4946654;28;19929;-59
2022/05/25 18:02:44;;;;;;;;;;;;;;;;;;4934526;28;19923;-61
2022/05/25 18:05:10;;;;;;;;;;;;;;;;;;4946109;28;19928;-62
2022/05/25 18:07:38;;;;;;;;;;;;;;;;;;4933457;28;20020;-61
2022/05/25 18:10:03;;;;;;;;;;;;;;;;;;4930753;28;20027;-62
2022/05/25 18:12:28;;;;;;;;;;;;;;;;;;4931532;28;20068;-61
2022/05/25 18:14:56;;;;;;;;;;;;;;;;;;4946684;28;22030;-62
2022/05/25 18:17:22;;;;;;;;;;;;;;;;;;4932397;28;19919;-61
2022/05/25 18:19:50;;;;;;;;;;;;;;;;;;4928663;28;19926;-60
2022/05/25 18:22:15;;;;;;;;;;;;;;;;;;4947065;28;19923;-61
2022/05/25 18:24:43;;;;;;;;;;;;;;;;;;4947174;28;19957;-63
2022/05/25 18:27:11;;;;;;;;;;;;;;;;;;4931778;28;21713;-63
2022/05/25 18:29:39;;;;;;;;;;;;;;;;;;4929835;28;20621;-62
2022/05/25 18:35:21;;;;;;;;;;;;;;;;;;4931305;28;20057;-62
2022/05/25 18:37:48;;;;;;;;;;;;;;;;;;4946750;28;20537;-60